Time;durP1;ratioP1;P1;durP2;ratioP2;P2;SDS_P1;SDS_P2;PMS_P1;PMS_P2;Temp;Humidity;BMP_temperature;BMP_pressure;BME280_temperature;BME280_humidity;BME280_pressure;Samples;Min_cycle;Max_cycle;Signal;HPM_P1;HPM_P2
2023/06/28 00:00:14;;;;;;;;;;;;;;;;;;6228654;28;19995;-70
2023/06/28 00:03:14;;;;;;;;;;;;;;;;;;6225443;28;20032;-74
2023/06/28 00:06:14;;;;;;;;;;;;;;;;;;6232623;28;19955;-72
2023/06/28 00:09:14;;;;;;;;;;;;;;;;;;6229861;28;19932;-70
2023/06/28 00:12:14;;;;;;;;;;;;;;;;;;6227280;28;19924;-70
2023/06/28 00:15:15;;;;;;;;;;;;;;;;;;6227848;28;20527;-68
2023/06/28 00:18:15;;;;;;;;;;;;;;;;;;6221988;28;20043;-70
2023/06/28 00:21:15;;;;;;;;;;;;;;;;;;6225196;28;19921;-69
2023/06/28 00:24:15;;;;;;;;;;;;;;;;;;6232928;28;19917;-69
2023/06/28 00:27:15;;;;;;;;;;;;;;;;;;6241384;28;19974;-71
2023/06/28 00:30:15;;;;;;;;;;;;;;;;;;6236358;28;20311;-72
2023/06/28 00:33:19;;;;;;;;;;;;;;;;;;6224506;28;20420;-71
2023/06/28 00:36:19;;;;;;;;;;;;;;;;;;6219392;28;19979;-71
2023/06/28 00:39:20;;;;;;;;;;;;;;;;;;6228486;28;19921;-69
2023/06/28 00:42:20;;;;;;;;;;;;;;;;;;6219059;28;20011;-69
2023/06/28 00:45:20;;;;;;;;;;;;;;;;;;6222687;28;20352;-69
2023/06/28 00:48:20;;;;;;;;;;;;;;;;;;6225602;28;20021;-66
2023/06/28 00:51:22;;;;;;;;;;;;;;;;;;6227219;28;19971;-67
2023/06/28 00:54:22;;;;;;;;;;;;;;;;;;6233753;28;19924;-68
2023/06/28 00:57:22;;;;;;;;;;;;;;;;;;6223934;28;19913;-68
2023/06/28 01:00:22;;;;;;;;;;;;;;;;;;6235852;28;19917;-68
2023/06/28 01:03:23;;;;;;;;;;;;;;;;;;6229869;28;19917;-71
2023/06/28 01:06:23;;;;;;;;;;;;;;;;;;6225019;28;19920;-71
2023/06/28 01:09:23;;;;;;;;;;;;;;;;;;6224262;28;20591;-68
2023/06/28 01:12:23;;;;;;;;;;;;;;;;;;6227677;28;19920;-70
2023/06/28 01:15:23;;;;;;;;;;;;;;;;;;6223411;28;19921;-67
2023/06/28 01:18:23;;;;;;;;;;;;;;;;;;6221599;28;19968;-69
2023/06/28 01:21:24;;;;;;;;;;;;;;;;;;6221571;28;19913;-67
2023/06/28 01:24:24;;;;;;;;;;;;;;;;;;6221463;28;20067;-67
2023/06/28 01:27:24;;;;;;;;;;;;;;;;;;6222927;28;20385;-69
2023/06/28 01:30:25;;;;;;;;;;;;;;;;;;6221111;28;19920;-68
2023/06/28 01:33:26;;;;;;;;;;;;;;;;;;6223471;28;19917;-70
2023/06/28 01:36:26;;;;;;;;;;;;;;;;;;6222857;28;19932;-71
2023/06/28 01:39:26;;;;;;;;;;;;;;;;;;6219862;28;20458;-68
2023/06/28 01:42:26;;;;;;;;;;;;;;;;;;6229724;28;20369;-68
2023/06/28 01:45:27;;;;;;;;;;;;;;;;;;6224859;28;20019;-67
2023/06/28 01:48:27;;;;;;;;;;;;;;;;;;6201586;28;19972;-65
2023/06/28 01:51:27;;;;;;;;;;;;;;;;;;6221169;28;19928;-67
2023/06/28 01:54:27;;;;;;;;;;;;;;;;;;6220786;28;19959;-68
2023/06/28 01:57:27;;;;;;;;;;;;;;;;;;6207082;28;19914;-69
2023/06/28 02:00:28;;;;;;;;;;;;;;;;;;6220376;28;19909;-68
2023/06/28 02:03:28;;;;;;;;;;;;;;;;;;6222403;28;19920;-66
2023/06/28 02:06:28;;;;;;;;;;;;;;;;;;6220190;28;20358;-68
2023/06/28 02:09:29;;;;;;;;;;;;;;;;;;6225003;28;19925;-68
2023/06/28 02:12:29;;;;;;;;;;;;;;;;;;6227732;28;19928;-69
2023/06/28 02:15:29;;;;;;;;;;;;;;;;;;6233983;28;19913;-70
2023/06/28 02:18:31;;;;;;;;;;;;;;;;;;6221730;28;20036;-68
2023/06/28 02:21:31;;;;;;;;;;;;;;;;;;6227954;28;19914;-72
2023/06/28 02:24:31;;;;;;;;;;;;;;;;;;6245715;28;19909;-71
2023/06/28 02:27:31;;;;;;;;;;;;;;;;;;6242125;28;19944;-70
2023/06/28 02:30:31;;;;;;;;;;;;;;;;;;6248236;28;20556;-71
2023/06/28 02:33:31;;;;;;;;;;;;;;;;;;6257359;28;19948;-71
2023/06/28 02:36:32;;;;;;;;;;;;;;;;;;6242065;28;19920;-71
2023/06/28 02:39:32;;;;;;;;;;;;;;;;;;6238211;28;19913;-70
2023/06/28 02:42:32;;;;;;;;;;;;;;;;;;6233885;28;19928;-70
2023/06/28 02:45:32;;;;;;;;;;;;;;;;;;6228501;28;20073;-70
2023/06/28 02:48:32;;;;;;;;;;;;;;;;;;6203770;28;19971;-69
2023/06/28 02:51:32;;;;;;;;;;;;;;;;;;6219950;28;19924;-69
2023/06/28 02:54:32;;;;;;;;;;;;;;;;;;6217255;28;20378;-71
2023/06/28 02:57:32;;;;;;;;;;;;;;;;;;6220984;28;19924;-70
2023/06/28 03:00:33;;;;;;;;;;;;;;;;;;6220421;28;19997;-68
2023/06/28 03:03:33;;;;;;;;;;;;;;;;;;6220676;28;19913;-66
2023/06/28 03:06:33;;;;;;;;;;;;;;;;;;6207576;28;19917;-66
2023/06/28 03:09:33;;;;;;;;;;;;;;;;;;6223859;28;19925;-67
2023/06/28 03:12:33;;;;;;;;;;;;;;;;;;6217896;28;19937;-65
2023/06/28 03:15:33;;;;;;;;;;;;;;;;;;6223506;28;19917;-64
2023/06/28 03:18:33;;;;;;;;;;;;;;;;;;6218956;28;19921;-68
2023/06/28 03:21:33;;;;;;;;;;;;;;;;;;6218058;28;19913;-65
2023/06/28 03:24:34;;;;;;;;;;;;;;;;;;6220126;28;19925;-63
2023/06/28 03:27:34;;;;;;;;;;;;;;;;;;6219387;28;20172;-65
2023/06/28 03:30:34;;;;;;;;;;;;;;;;;;6225033;28;19936;-64
2023/06/28 03:33:36;;;;;;;;;;;;;;;;;;6200332;28;20370;-66
2023/06/28 03:36:36;;;;;;;;;;;;;;;;;;6220514;28;19914;-67
2023/06/28 03:39:36;;;;;;;;;;;;;;;;;;6216829;28;20605;-67
2023/06/28 03:42:36;;;;;;;;;;;;;;;;;;6225950;28;19967;-67
2023/06/28 03:45:36;;;;;;;;;;;;;;;;;;6225983;28;19913;-65
2023/06/28 03:48:36;;;;;;;;;;;;;;;;;;6221678;28;19917;-68
2023/06/28 03:51:37;;;;;;;;;;;;;;;;;;6220940;28;19917;-67
2023/06/28 03:54:37;;;;;;;;;;;;;;;;;;6202413;28;19921;-66
2023/06/28 03:57:37;;;;;;;;;;;;;;;;;;6200422;28;19913;-69
2023/06/28 04:00:37;;;;;;;;;;;;;;;;;;6242238;28;19919;-72
2023/06/28 04:03:38;;;;;;;;;;;;;;;;;;6241243;28;19917;-72
2023/06/28 04:06:38;;;;;;;;;;;;;;;;;;6227250;28;19921;-71
2023/06/28 04:09:38;;;;;;;;;;;;;;;;;;6254556;28;19932;-72
2023/06/28 04:12:38;;;;;;;;;;;;;;;;;;6235107;28;19917;-71
2023/06/28 04:15:38;;;;;;;;;;;;;;;;;;6229562;28;20051;-69
2023/06/28 04:18:38;;;;;;;;;;;;;;;;;;6222125;28;19925;-69
2023/06/28 04:21:39;;;;;;;;;;;;;;;;;;6222390;28;19993;-71
2023/06/28 04:24:39;;;;;;;;;;;;;;;;;;6216261;28;19928;-71
2023/06/28 04:27:39;;;;;;;;;;;;;;;;;;6220868;28;20011;-70
2023/06/28 04:30:39;;;;;;;;;;;;;;;;;;6204646;28;20251;-73
2023/06/28 04:33:39;;;;;;;;;;;;;;;;;;6219196;28;20032;-71
2023/06/28 04:36:39;;;;;;;;;;;;;;;;;;6204270;28;19924;-70
2023/06/28 04:39:40;;;;;;;;;;;;;;;;;;6227196;28;19913;-71
2023/06/28 04:42:40;;;;;;;;;;;;;;;;;;6227891;28;20019;-71
2023/06/28 04:45:40;;;;;;;;;;;;;;;;;;6211326;28;19917;-71
2023/06/28 04:48:40;;;;;;;;;;;;;;;;;;6228122;28;19968;-73
2023/06/28 04:51:41;;;;;;;;;;;;;;;;;;6224060;28;19921;-72
2023/06/28 04:54:41;;;;;;;;;;;;;;;;;;6226205;28;19987;-71
2023/06/28 04:57:41;;;;;;;;;;;;;;;;;;6226208;28;19921;-71
2023/06/28 05:00:42;;;;;;;;;;;;;;;;;;6224116;28;21366;-73
2023/06/28 05:03:46;;;;;;;;;;;;;;;;;;6220542;28;19936;-73
2023/06/28 05:06:46;;;;;;;;;;;;;;;;;;6220392;28;19921;-72
2023/06/28 05:09:48;;;;;;;;;;;;;;;;;;6227072;28;19928;-72
2023/06/28 05:12:50;;;;;;;;;;;;;;;;;;6228952;28;20388;-71
2023/06/28 05:15:50;;;;;;;;;;;;;;;;;;6225635;28;20385;-73
2023/06/28 05:18:50;;;;;;;;;;;;;;;;;;6223860;28;19917;-71
2023/06/28 05:21:50;;;;;;;;;;;;;;;;;;6230975;28;19924;-73
2023/06/28 05:24:50;;;;;;;;;;;;;;;;;;6225430;28;19960;-72
2023/06/28 05:27:50;;;;;;;;;;;;;;;;;;6226247;28;19920;-71
2023/06/28 05:30:50;;;;;;;;;;;;;;;;;;6222040;28;19921;-70
2023/06/28 05:33:50;;;;;;;;;;;;;;;;;;6224157;28;19918;-72
2023/06/28 05:36:51;;;;;;;;;;;;;;;;;;6226822;28;20040;-71
2023/06/28 05:39:51;;;;;;;;;;;;;;;;;;6235365;28;19920;-74
2023/06/28 05:42:51;;;;;;;;;;;;;;;;;;6227702;28;20087;-72
2023/06/28 05:45:52;;;;;;;;;;;;;;;;;;6225164;28;19979;-72
2023/06/28 05:48:53;;;;;;;;;;;;;;;;;;6223810;28;20447;-71
2023/06/28 05:51:53;;;;;;;;;;;;;;;;;;6222070;28;19917;-72
2023/06/28 05:54:53;;;;;;;;;;;;;;;;;;6224333;28;20003;-72
2023/06/28 05:57:53;;;;;;;;;;;;;;;;;;6223444;28;20391;-71
2023/06/28 06:00:53;;;;;;;;;;;;;;;;;;6223494;28;20039;-70
2023/06/28 06:03:53;;;;;;;;;;;;;;;;;;6209962;28;19921;-69
2023/06/28 06:06:53;;;;;;;;;;;;;;;;;;6216005;28;19924;-70
2023/06/28 06:09:53;;;;;;;;;;;;;;;;;;6232260;28;19905;-71
2023/06/28 06:12:54;;;;;;;;;;;;;;;;;;6233132;28;19913;-71
2023/06/28 06:15:54;;;;;;;;;;;;;;;;;;6247885;28;20612;-72
2023/06/28 06:18:54;;;;;;;;;;;;;;;;;;6240967;28;20016;-71
2023/06/28 06:21:54;;;;;;;;;;;;;;;;;;6243697;28;19951;-71
2023/06/28 06:24:55;;;;;;;;;;;;;;;;;;6244067;28;19909;-71
2023/06/28 06:27:55;;;;;;;;;;;;;;;;;;5889601;28;10000463;-72
2023/06/28 06:30:55;;;;;;;;;;;;;;;;;;6237655;28;19947;-70
2023/06/28 06:34:01;;;;;;;;;;;;;;;;;;6241135;28;19924;-71
2023/06/28 06:37:01;;;;;;;;;;;;;;;;;;6238635;28;19916;-69
2023/06/28 06:40:01;;;;;;;;;;;;;;;;;;6236294;28;20408;-70
2023/06/28 06:43:01;;;;;;;;;;;;;;;;;;6237237;28;19913;-70
2023/06/28 06:46:01;;;;;;;;;;;;;;;;;;6228815;28;20020;-70
2023/06/28 06:49:01;;;;;;;;;;;;;;;;;;6229046;28;19925;-69
2023/06/28 06:52:02;;;;;;;;;;;;;;;;;;6237623;28;20009;-69
2023/06/28 06:55:02;;;;;;;;;;;;;;;;;;6228255;28;19917;-71
2023/06/28 06:58:03;;;;;;;;;;;;;;;;;;6240543;28;19960;-69
2023/06/28 07:01:03;;;;;;;;;;;;;;;;;;6242127;28;19935;-69
2023/06/28 07:04:03;;;;;;;;;;;;;;;;;;6224139;28;20327;-70
2023/06/28 07:07:03;;;;;;;;;;;;;;;;;;6230134;28;19945;-70
2023/06/28 07:10:03;;;;;;;;;;;;;;;;;;6221999;28;19963;-70
2023/06/28 07:13:04;;;;;;;;;;;;;;;;;;6243139;28;19913;-70
2023/06/28 07:16:04;;;;;;;;;;;;;;;;;;6234725;28;19933;-71
2023/06/28 07:19:05;;;;;;;;;;;;;;;;;;6232569;28;19909;-70
2023/06/28 07:22:05;;;;;;;;;;;;;;;;;;6239761;28;19967;-70
2023/06/28 07:25:06;;;;;;;;;;;;;;;;;;6239217;28;19925;-67
2023/06/28 07:28:06;;;;;;;;;;;;;;;;;;6232374;28;19917;-68
2023/06/28 07:31:06;;;;;;;;;;;;;;;;;;6224476;28;19932;-67
2023/06/28 07:34:07;;;;;;;;;;;;;;;;;;6239482;28;19928;-66
2023/06/28 07:37:07;;;;;;;;;;;;;;;;;;6237864;28;20286;-68
2023/06/28 07:40:08;;;;;;;;;;;;;;;;;;6222027;28;19999;-67
2023/06/28 07:43:08;;;;;;;;;;;;;;;;;;6236627;28;20420;-66
2023/06/28 07:46:08;;;;;;;;;;;;;;;;;;6228757;28;19917;-67
2023/06/28 07:49:08;;;;;;;;;;;;;;;;;;6239327;28;19913;-69
2023/06/28 07:52:09;;;;;;;;;;;;;;;;;;6230196;28;19913;-67
2023/06/28 07:55:10;;;;;;;;;;;;;;;;;;6235306;28;19964;-68
2023/06/28 07:58:10;;;;;;;;;;;;;;;;;;6235751;28;19996;-67
2023/06/28 08:01:11;;;;;;;;;;;;;;;;;;6227681;28;19913;-68
2023/06/28 08:04:11;;;;;;;;;;;;;;;;;;6222440;28;19917;-68
2023/06/28 08:07:11;;;;;;;;;;;;;;;;;;6233184;28;19963;-68
2023/06/28 08:10:11;;;;;;;;;;;;;;;;;;6237446;28;19918;-66
2023/06/28 08:13:11;;;;;;;;;;;;;;;;;;6238730;28;19953;-69
2023/06/28 08:16:11;;;;;;;;;;;;;;;;;;6233782;28;19920;-64
2023/06/28 08:19:13;;;;;;;;;;;;;;;;;;6233804;28;19913;-65
2023/06/28 08:22:13;;;;;;;;;;;;;;;;;;6240410;28;19999;-63
2023/06/28 08:25:13;;;;;;;;;;;;;;;;;;6232390;28;19921;-64
2023/06/28 08:28:13;;;;;;;;;;;;;;;;;;6235381;28;20330;-65
2023/06/28 08:31:13;;;;;;;;;;;;;;;;;;6225513;28;19928;-65
2023/06/28 08:34:13;;;;;;;;;;;;;;;;;;6233398;28;19940;-66
2023/06/28 08:37:13;;;;;;;;;;;;;;;;;;6235651;28;20012;-66
2023/06/28 08:40:14;;;;;;;;;;;;;;;;;;6233525;28;19921;-67
2023/06/28 08:43:14;;;;;;;;;;;;;;;;;;6234996;28;19995;-69
2023/06/28 08:46:14;;;;;;;;;;;;;;;;;;6230379;28;20365;-69
2023/06/28 08:49:14;;;;;;;;;;;;;;;;;;6232290;28;19913;-70
2023/06/28 08:52:14;;;;;;;;;;;;;;;;;;6238526;28;19920;-69
2023/06/28 08:55:14;;;;;;;;;;;;;;;;;;6232156;28;20015;-73
2023/06/28 08:58:15;;;;;;;;;;;;;;;;;;6236707;28;19939;-70
2023/06/28 09:01:15;;;;;;;;;;;;;;;;;;6234979;28;19917;-70
2023/06/28 09:04:15;;;;;;;;;;;;;;;;;;6224678;28;19975;-72
2023/06/28 09:07:15;;;;;;;;;;;;;;;;;;6240002;28;19917;-71
2023/06/28 09:10:15;;;;;;;;;;;;;;;;;;6228818;28;19986;-70
2023/06/28 09:13:19;;;;;;;;;;;;;;;;;;6240192;28;20022;-70
2023/06/28 09:16:20;;;;;;;;;;;;;;;;;;6239046;28;19956;-71
2023/06/28 09:19:20;;;;;;;;;;;;;;;;;;6244155;28;20027;-71
2023/06/28 09:22:20;;;;;;;;;;;;;;;;;;6244528;28;19913;-71
2023/06/28 09:25:20;;;;;;;;;;;;;;;;;;6243378;28;20405;-70
2023/06/28 09:28:20;;;;;;;;;;;;;;;;;;6252188;28;20377;-71
2023/06/28 09:31:20;;;;;;;;;;;;;;;;;;6224143;28;19917;-69
2023/06/28 09:34:21;;;;;;;;;;;;;;;;;;6233528;28;20388;-71
2023/06/28 09:37:21;;;;;;;;;;;;;;;;;;6243199;28;20000;-70
2023/06/28 09:40:21;;;;;;;;;;;;;;;;;;6227341;28;19913;-70
2023/06/28 09:43:22;;;;;;;;;;;;;;;;;;6234967;28;19914;-70
2023/06/28 09:46:22;;;;;;;;;;;;;;;;;;6227211;28;19913;-69
2023/06/28 09:49:22;;;;;;;;;;;;;;;;;;6237806;28;19919;-71
2023/06/28 09:52:22;;;;;;;;;;;;;;;;;;6241218;28;20405;-70
2023/06/28 09:55:22;;;;;;;;;;;;;;;;;;6223522;28;19913;-70
2023/06/28 09:58:22;;;;;;;;;;;;;;;;;;6233714;28;19921;-70
2023/06/28 10:01:23;;;;;;;;;;;;;;;;;;6227989;28;19993;-70
2023/06/28 10:04:23;;;;;;;;;;;;;;;;;;6238485;28;20006;-70
2023/06/28 10:07:24;;;;;;;;;;;;;;;;;;6236475;28;19917;-70
2023/06/28 10:10:24;;;;;;;;;;;;;;;;;;6233199;28;19920;-70
2023/06/28 10:13:26;;;;;;;;;;;;;;;;;;6245783;28;19936;-70
2023/06/28 10:16:26;;;;;;;;;;;;;;;;;;6221253;28;19949;-70
2023/06/28 10:19:26;;;;;;;;;;;;;;;;;;6231490;28;19925;-71
2023/06/28 10:22:26;;;;;;;;;;;;;;;;;;6235118;28;19921;-72
2023/06/28 10:25:27;;;;;;;;;;;;;;;;;;6236051;28;20408;-72
2023/06/28 10:28:27;;;;;;;;;;;;;;;;;;6240069;28;19913;-70
2023/06/28 10:31:27;;;;;;;;;;;;;;;;;;6227928;28;19924;-70
2023/06/28 10:34:27;;;;;;;;;;;;;;;;;;6229821;28;19917;-71
2023/06/28 10:37:27;;;;;;;;;;;;;;;;;;6235955;28;19924;-70
2023/06/28 10:40:27;;;;;;;;;;;;;;;;;;6220684;28;19917;-69
2023/06/28 10:43:27;;;;;;;;;;;;;;;;;;6234867;28;20325;-70
2023/06/28 10:46:28;;;;;;;;;;;;;;;;;;6242946;28;19960;-71
2023/06/28 10:49:28;;;;;;;;;;;;;;;;;;6229555;28;20289;-72
2023/06/28 10:52:28;;;;;;;;;;;;;;;;;;6233867;28;19999;-72
2023/06/28 10:55:28;;;;;;;;;;;;;;;;;;6236454;28;20239;-71
2023/06/28 10:58:28;;;;;;;;;;;;;;;;;;6235466;28;19921;-71
2023/06/28 11:01:29;;;;;;;;;;;;;;;;;;6225675;28;20353;-71
2023/06/28 11:04:29;;;;;;;;;;;;;;;;;;6233037;28;19920;-71
2023/06/28 11:07:30;;;;;;;;;;;;;;;;;;6235232;28;19916;-70
2023/06/28 11:10:30;;;;;;;;;;;;;;;;;;6227000;28;19925;-72
2023/06/28 11:13:31;;;;;;;;;;;;;;;;;;6233770;28;20428;-71
2023/06/28 11:16:32;;;;;;;;;;;;;;;;;;6238251;28;20016;-71
2023/06/28 11:19:32;;;;;;;;;;;;;;;;;;6226593;28;19917;-72
2023/06/28 11:22:32;;;;;;;;;;;;;;;;;;6232838;28;20003;-70
2023/06/28 11:25:32;;;;;;;;;;;;;;;;;;6221624;28;19921;-72
2023/06/28 11:28:32;;;;;;;;;;;;;;;;;;6227323;28;19917;-71
2023/06/28 11:31:32;;;;;;;;;;;;;;;;;;6256004;28;19916;-71
2023/06/28 11:34:32;;;;;;;;;;;;;;;;;;6237403;28;20449;-71
2023/06/28 11:37:32;;;;;;;;;;;;;;;;;;6219377;28;19917;-69
2023/06/28 11:40:33;;;;;;;;;;;;;;;;;;6233158;28;19909;-71
2023/06/28 11:43:33;;;;;;;;;;;;;;;;;;6233358;28;19913;-70
2023/06/28 11:46:33;;;;;;;;;;;;;;;;;;6239951;28;19976;-70
2023/06/28 11:49:33;;;;;;;;;;;;;;;;;;6221047;28;19929;-71
2023/06/28 11:52:33;;;;;;;;;;;;;;;;;;6240818;28;19959;-71
2023/06/28 11:55:33;;;;;;;;;;;;;;;;;;6241101;28;19982;-70
2023/06/28 11:58:33;;;;;;;;;;;;;;;;;;6225850;28;20332;-71
2023/06/28 12:01:33;;;;;;;;;;;;;;;;;;6236139;28;19913;-71
2023/06/28 12:04:34;;;;;;;;;;;;;;;;;;6231213;28;19967;-71
2023/06/28 12:07:34;;;;;;;;;;;;;;;;;;6237805;28;20000;-70
2023/06/28 12:10:35;;;;;;;;;;;;;;;;;;6236628;28;19921;-70
2023/06/28 12:13:35;;;;;;;;;;;;;;;;;;6235690;28;19917;-71
2023/06/28 12:16:35;;;;;;;;;;;;;;;;;;5888020;28;9999906;-72
2023/06/28 12:19:35;;;;;;;;;;;;;;;;;;6241255;28;20353;-71
2023/06/28 12:22:36;;;;;;;;;;;;;;;;;;6243784;28;19913;-72
2023/06/28 12:25:36;;;;;;;;;;;;;;;;;;6244359;28;19969;-70
2023/06/28 12:28:36;;;;;;;;;;;;;;;;;;6223597;28;20012;-70
2023/06/28 12:31:36;;;;;;;;;;;;;;;;;;6245713;28;19913;-67
2023/06/28 12:34:38;;;;;;;;;;;;;;;;;;6235793;28;20177;-69
2023/06/28 12:37:42;;;;;;;;;;;;;;;;;;6223629;28;19909;-70
2023/06/28 12:40:42;;;;;;;;;;;;;;;;;;6239488;28;19940;-70
2023/06/28 12:43:43;;;;;;;;;;;;;;;;;;6227174;28;19989;-70
2023/06/28 12:46:43;;;;;;;;;;;;;;;;;;6236334;28;19972;-70
2023/06/28 12:49:44;;;;;;;;;;;;;;;;;;6236245;28;19952;-69
2023/06/28 12:52:44;;;;;;;;;;;;;;;;;;6236094;28;19909;-70
2023/06/28 12:55:44;;;;;;;;;;;;;;;;;;6231857;28;19960;-70
2023/06/28 12:58:44;;;;;;;;;;;;;;;;;;6222812;28;19917;-69
2023/06/28 13:01:44;;;;;;;;;;;;;;;;;;6242842;28;19922;-70
2023/06/28 13:04:44;;;;;;;;;;;;;;;;;;6247893;28;20012;-70
2023/06/28 13:07:45;;;;;;;;;;;;;;;;;;6240838;28;20297;-70
2023/06/28 13:10:45;;;;;;;;;;;;;;;;;;6239360;28;19967;-69
2023/06/28 13:13:45;;;;;;;;;;;;;;;;;;6226198;28;20467;-69
2023/06/28 13:16:45;;;;;;;;;;;;;;;;;;6245105;28;20018;-69
2023/06/28 13:19:45;;;;;;;;;;;;;;;;;;6239728;28;19910;-69
2023/06/28 13:22:45;;;;;;;;;;;;;;;;;;6231913;28;19948;-69
2023/06/28 13:25:47;;;;;;;;;;;;;;;;;;6245692;28;20008;-68
2023/06/28 13:28:47;;;;;;;;;;;;;;;;;;6231901;28;20007;-69
2023/06/28 13:31:47;;;;;;;;;;;;;;;;;;6229526;28;19918;-70
2023/06/28 13:34:47;;;;;;;;;;;;;;;;;;6240726;28;19963;-69
2023/06/28 13:37:48;;;;;;;;;;;;;;;;;;6220765;28;19913;-69
2023/06/28 13:40:48;;;;;;;;;;;;;;;;;;6242939;28;19996;-68
2023/06/28 13:43:48;;;;;;;;;;;;;;;;;;6231758;28;20369;-68
2023/06/28 13:46:48;;;;;;;;;;;;;;;;;;6237978;28;19917;-70
2023/06/28 13:49:48;;;;;;;;;;;;;;;;;;6235916;28;19925;-70
2023/06/28 13:52:49;;;;;;;;;;;;;;;;;;6238901;28;19909;-69
2023/06/28 13:55:49;;;;;;;;;;;;;;;;;;5885843;28;10000375;-68
2023/06/28 13:58:49;;;;;;;;;;;;;;;;;;6241344;28;19929;-67
2023/06/28 14:01:49;;;;;;;;;;;;;;;;;;6235182;28;19917;-67
2023/06/28 14:04:49;;;;;;;;;;;;;;;;;;6241810;28;19944;-68
2023/06/28 14:07:49;;;;;;;;;;;;;;;;;;6226974;28;19913;-67
2023/06/28 14:10:49;;;;;;;;;;;;;;;;;;6235246;28;19921;-68
2023/06/28 14:13:49;;;;;;;;;;;;;;;;;;6239165;28;19952;-66
2023/06/28 14:16:50;;;;;;;;;;;;;;;;;;6230978;28;20275;-68
2023/06/28 14:19:50;;;;;;;;;;;;;;;;;;6235968;28;19952;-67
2023/06/28 14:22:53;;;;;;;;;;;;;;;;;;6238766;28;19960;-68
2023/06/28 14:25:53;;;;;;;;;;;;;;;;;;6240189;28;19967;-68
2023/06/28 14:28:53;;;;;;;;;;;;;;;;;;6241304;28;19917;-69
2023/06/28 14:31:53;;;;;;;;;;;;;;;;;;6233927;28;20352;-69
2023/06/28 14:34:53;;;;;;;;;;;;;;;;;;6239486;28;20274;-70
2023/06/28 14:37:53;;;;;;;;;;;;;;;;;;6242118;28;19920;-70
2023/06/28 14:40:54;;;;;;;;;;;;;;;;;;6227083;28;19963;-70
2023/06/28 14:43:54;;;;;;;;;;;;;;;;;;6239112;28;19992;-70
2023/06/28 14:46:54;;;;;;;;;;;;;;;;;;6235522;28;19952;-71
2023/06/28 14:49:54;;;;;;;;;;;;;;;;;;6238900;28;19986;-70
2023/06/28 14:52:54;;;;;;;;;;;;;;;;;;6234562;28;20389;-70
2023/06/28 14:55:54;;;;;;;;;;;;;;;;;;6236676;28;20016;-71
2023/06/28 14:58:54;;;;;;;;;;;;;;;;;;6242114;28;19916;-68
2023/06/28 15:01:54;;;;;;;;;;;;;;;;;;6238388;28;19913;-70
2023/06/28 15:04:55;;;;;;;;;;;;;;;;;;6241067;28;20393;-70
2023/06/28 15:07:55;;;;;;;;;;;;;;;;;;6229885;28;19917;-71
2023/06/28 15:10:55;;;;;;;;;;;;;;;;;;6236561;28;20297;-71
2023/06/28 15:13:55;;;;;;;;;;;;;;;;;;6237145;28;19917;-71
2023/06/28 15:16:55;;;;;;;;;;;;;;;;;;6238940;28;19921;-72
2023/06/28 15:19:55;;;;;;;;;;;;;;;;;;6232720;28;20324;-71
2023/06/28 15:22:55;;;;;;;;;;;;;;;;;;6232536;28;19924;-70
2023/06/28 15:25:55;;;;;;;;;;;;;;;;;;6227574;28;20004;-70
2023/06/28 15:28:58;;;;;;;;;;;;;;;;;;6216976;28;19924;-70
2023/06/28 15:31:58;;;;;;;;;;;;;;;;;;6241139;28;20361;-70
2023/06/28 15:34:58;;;;;;;;;;;;;;;;;;6222262;28;19917;-70
2023/06/28 15:37:58;;;;;;;;;;;;;;;;;;6239372;28;19917;-71
2023/06/28 15:40:58;;;;;;;;;;;;;;;;;;6242002;28;19928;-71
2023/06/28 15:43:58;;;;;;;;;;;;;;;;;;6245687;28;19913;-71
2023/06/28 15:46:58;;;;;;;;;;;;;;;;;;6241949;28;19917;-71
2023/06/28 15:49:58;;;;;;;;;;;;;;;;;;6244666;28;19945;-69
2023/06/28 15:52:58;;;;;;;;;;;;;;;;;;6240946;28;19923;-71
2023/06/28 15:55:59;;;;;;;;;;;;;;;;;;6247710;28;19921;-71
2023/06/28 15:58:59;;;;;;;;;;;;;;;;;;6243875;28;19917;-71
2023/06/28 16:01:59;;;;;;;;;;;;;;;;;;6241296;28;20008;-70
2023/06/28 16:04:59;;;;;;;;;;;;;;;;;;6243843;28;19917;-70
2023/06/28 16:07:59;;;;;;;;;;;;;;;;;;6232899;28;20372;-70
2023/06/28 16:11:00;;;;;;;;;;;;;;;;;;6228657;28;19971;-71
2023/06/28 16:14:00;;;;;;;;;;;;;;;;;;6241275;28;20032;-71
2023/06/28 16:17:00;;;;;;;;;;;;;;;;;;6237861;28;19950;-70
2023/06/28 16:20:01;;;;;;;;;;;;;;;;;;6240959;28;19924;-69
2023/06/28 16:23:01;;;;;;;;;;;;;;;;;;6237334;28;19913;-70
2023/06/28 16:26:01;;;;;;;;;;;;;;;;;;6236477;28;19913;-71
2023/06/28 16:29:01;;;;;;;;;;;;;;;;;;6235976;28;19997;-70
2023/06/28 16:32:01;;;;;;;;;;;;;;;;;;6249043;28;19994;-70
2023/06/28 16:35:01;;;;;;;;;;;;;;;;;;6235015;28;20007;-72
2023/06/28 16:38:01;;;;;;;;;;;;;;;;;;6227896;28;19913;-70
2023/06/28 16:41:01;;;;;;;;;;;;;;;;;;6218744;28;20390;-71
2023/06/28 16:44:02;;;;;;;;;;;;;;;;;;6224160;28;20016;-71
2023/06/28 16:47:02;;;;;;;;;;;;;;;;;;6232250;28;19913;-69
2023/06/28 16:50:02;;;;;;;;;;;;;;;;;;6208649;28;20296;-70
2023/06/28 16:53:02;;;;;;;;;;;;;;;;;;6224015;28;19928;-70
2023/06/28 16:56:02;;;;;;;;;;;;;;;;;;6220890;28;19964;-69
2023/06/28 16:59:02;;;;;;;;;;;;;;;;;;6223383;28;19924;-69
2023/06/28 17:02:02;;;;;;;;;;;;;;;;;;6222430;28;19921;-69
2023/06/28 17:05:02;;;;;;;;;;;;;;;;;;6222217;28;19913;-71
2023/06/28 17:08:02;;;;;;;;;;;;;;;;;;6217657;28;20401;-69
2023/06/28 17:11:03;;;;;;;;;;;;;;;;;;6240166;28;19918;-69
2023/06/28 17:14:06;;;;;;;;;;;;;;;;;;6223563;28;19913;-70
2023/06/28 17:17:06;;;;;;;;;;;;;;;;;;6238616;28;19962;-70
2023/06/28 17:20:07;;;;;;;;;;;;;;;;;;6233512;28;19943;-70
2023/06/28 17:23:07;;;;;;;;;;;;;;;;;;6232051;28;19924;-70
2023/06/28 17:26:07;;;;;;;;;;;;;;;;;;6226384;28;19920;-70
2023/06/28 17:29:09;;;;;;;;;;;;;;;;;;6242170;28;19917;-70
2023/06/28 17:32:09;;;;;;;;;;;;;;;;;;6225445;28;19965;-71
2023/06/28 17:35:09;;;;;;;;;;;;;;;;;;6226776;28;19921;-71
2023/06/28 17:38:09;;;;;;;;;;;;;;;;;;6239811;28;19917;-70
2023/06/28 17:41:11;;;;;;;;;;;;;;;;;;6208426;28;19962;-70
2023/06/28 17:44:12;;;;;;;;;;;;;;;;;;6220279;28;20445;-70
2023/06/28 17:47:12;;;;;;;;;;;;;;;;;;6223791;28;19921;-69
2023/06/28 17:50:12;;;;;;;;;;;;;;;;;;6232762;28;19925;-70
2023/06/28 17:53:12;;;;;;;;;;;;;;;;;;6218417;28;19917;-71
2023/06/28 17:56:12;;;;;;;;;;;;;;;;;;6222003;28;20020;-70
2023/06/28 17:59:12;;;;;;;;;;;;;;;;;;6220449;28;19948;-69
2023/06/28 18:02:12;;;;;;;;;;;;;;;;;;6226179;28;19923;-71
2023/06/28 18:05:13;;;;;;;;;;;;;;;;;;6226756;28;19918;-70
2023/06/28 18:08:13;;;;;;;;;;;;;;;;;;6217953;28;20239;-71
2023/06/28 18:11:13;;;;;;;;;;;;;;;;;;6221223;28;19924;-70
2023/06/28 18:14:13;;;;;;;;;;;;;;;;;;6245733;28;19917;-72
2023/06/28 18:17:14;;;;;;;;;;;;;;;;;;6242332;28;19983;-71
2023/06/28 18:20:14;;;;;;;;;;;;;;;;;;6255505;28;19932;-71
2023/06/28 18:23:14;;;;;;;;;;;;;;;;;;6246383;28;19999;-71
2023/06/28 18:26:14;;;;;;;;;;;;;;;;;;6243959;28;19953;-71
2023/06/28 18:29:14;;;;;;;;;;;;;;;;;;6245142;28;19975;-72
2023/06/28 18:32:15;;;;;;;;;;;;;;;;;;6242013;28;19921;-72
2023/06/28 18:35:15;;;;;;;;;;;;;;;;;;6248044;28;20008;-71
2023/06/28 18:38:15;;;;;;;;;;;;;;;;;;6252113;28;19920;-72
2023/06/28 18:41:15;;;;;;;;;;;;;;;;;;6238067;28;19924;-69
2023/06/28 18:44:15;;;;;;;;;;;;;;;;;;6226514;28;19913;-72
2023/06/28 18:47:16;;;;;;;;;;;;;;;;;;6208619;28;19921;-68
2023/06/28 18:50:16;;;;;;;;;;;;;;;;;;6230856;28;20392;-69
2023/06/28 18:53:16;;;;;;;;;;;;;;;;;;6222385;28;19913;-70
2023/06/28 18:56:16;;;;;;;;;;;;;;;;;;6228760;28;19928;-71
2023/06/28 18:59:16;;;;;;;;;;;;;;;;;;6222027;28;19956;-72
2023/06/28 19:02:16;;;;;;;;;;;;;;;;;;6220853;28;19921;-71
2023/06/28 19:05:17;;;;;;;;;;;;;;;;;;6227888;28;19994;-72
2023/06/28 19:08:17;;;;;;;;;;;;;;;;;;6222471;28;20295;-70
2023/06/28 19:11:17;;;;;;;;;;;;;;;;;;6207474;28;19921;-70
2023/06/28 19:14:17;;;;;;;;;;;;;;;;;;6222584;28;19927;-70
2023/06/28 19:17:17;;;;;;;;;;;;;;;;;;6227947;28;19980;-67
2023/06/28 19:20:18;;;;;;;;;;;;;;;;;;6230565;28;20301;-69
2023/06/28 19:23:18;;;;;;;;;;;;;;;;;;6229963;28;20302;-70
2023/06/28 19:26:18;;;;;;;;;;;;;;;;;;6225255;28;20350;-70
2023/06/28 19:29:18;;;;;;;;;;;;;;;;;;6226597;28;19932;-69
2023/06/28 19:32:18;;;;;;;;;;;;;;;;;;6211489;28;20069;-69
2023/06/28 19:35:18;;;;;;;;;;;;;;;;;;6240195;28;19990;-72
2023/06/28 19:38:18;;;;;;;;;;;;;;;;;;6228279;28;19917;-70
2023/06/28 19:41:18;;;;;;;;;;;;;;;;;;6225815;28;19928;-70
2023/06/28 19:44:19;;;;;;;;;;;;;;;;;;6218974;28;19943;-69
2023/06/28 19:47:19;;;;;;;;;;;;;;;;;;6220740;28;19939;-70
2023/06/28 19:50:19;;;;;;;;;;;;;;;;;;6216468;28;20370;-70
2023/06/28 19:53:19;;;;;;;;;;;;;;;;;;6230768;28;19969;-70
2023/06/28 19:56:20;;;;;;;;;;;;;;;;;;6218263;28;19923;-70
2023/06/28 19:59:21;;;;;;;;;;;;;;;;;;6224941;28;19929;-70
2023/06/28 20:02:22;;;;;;;;;;;;;;;;;;6222693;28;19982;-69
2023/06/28 20:05:22;;;;;;;;;;;;;;;;;;6228212;28;19917;-70
2023/06/28 20:08:22;;;;;;;;;;;;;;;;;;6223042;28;19997;-70
2023/06/28 20:11:22;;;;;;;;;;;;;;;;;;6224151;28;19960;-70
2023/06/28 20:14:22;;;;;;;;;;;;;;;;;;6203576;28;19917;-71
2023/06/28 20:17:22;;;;;;;;;;;;;;;;;;6220811;28;19918;-70
2023/06/28 20:20:22;;;;;;;;;;;;;;;;;;6231287;28;20017;-69
2023/06/28 20:23:23;;;;;;;;;;;;;;;;;;6224448;28;20071;-70
2023/06/28 20:26:23;;;;;;;;;;;;;;;;;;6203449;28;19929;-71
2023/06/28 20:29:24;;;;;;;;;;;;;;;;;;6228208;28;20017;-70